sensor_id;sensor_type;location;lat;lon;timestamp;temperature;humidity
292;DHT22;23311;48.776;9.162;2023-08-01T00:01:04;18.60;95.50
292;DHT22;23311;48.776;9.162;2023-08-01T00:03:33;18.60;95.50
292;DHT22;23311;48.776;9.162;2023-08-01T00:06:02;18.60;95.50
292;DHT22;23311;48.776;9.162;2023-08-01T00:08:30;18.60;95.50
292;DHT22;23311;48.776;9.162;2023-08-01T00:10:58;18.40;95.50
292;DHT22;23311;48.776;9.162;2023-08-01T00:13:26;18.20;95.50
292;DHT22;23311;48.776;9.162;2023-08-01T00:15:54;18.10;95.50
292;DHT22;23311;48.776;9.162;2023-08-01T00:18:25;17.90;95.50
292;DHT22;23311;48.776;9.162;2023-08-01T00:20:55;17.80;95.50
292;DHT22;23311;48.776;9.162;2023-08-01T00:23:23;17.70;95.50
292;DHT22;23311;48.776;9.162;2023-08-01T00:25:51;17.70;95.50
292;DHT22;23311;48.776;9.162;2023-08-01T00:28:21;17.70;95.50
292;DHT22;23311;48.776;9.162;2023-08-01T00:30:49;17.60;95.50
292;DHT22;23311;48.776;9.162;2023-08-01T00:33:17;17.60;95.50
292;DHT22;23311;48.776;9.162;2023-08-01T00:35:54;17.60;95.50
292;DHT22;23311;48.776;9.162;2023-08-01T00:38:22;17.60;95.50
292;DHT22;23311;48.776;9.162;2023-08-01T00:40:50;17.60;95.50
292;DHT22;23311;48.776;9.162;2023-08-01T00:43:19;17.60;95.50
292;DHT22;23311;48.776;9.162;2023-08-01T00:45:47;17.60;95.50
292;DHT22;23311;48.776;9.162;2023-08-01T00:48:15;17.60;95.50
292;DHT22;23311;48.776;9.162;2023-08-01T00:50:45;17.70;95.50
292;DHT22;23311;48.776;9.162;2023-08-01T00:53:15;17.80;95.50
292;DHT22;23311;48.776;9.162;2023-08-01T00:55:44;17.80;95.50
292;DHT22;23311;48.776;9.162;2023-08-01T00:58:12;17.80;95.50
292;DHT22;23311;48.776;9.162;2023-08-01T01:00:40;17.80;95.50
292;DHT22;23311;48.776;9.162;2023-08-01T01:03:09;17.80;95.50
292;DHT22;23311;48.776;9.162;2023-08-01T01:05:39;17.70;95.50
292;DHT22;23311;48.776;9.162;2023-08-01T01:08:10;17.60;95.50
292;DHT22;23311;48.776;9.162;2023-08-01T01:10:39;17.60;95.50
292;DHT22;23311;48.776;9.162;2023-08-01T01:13:08;17.50;95.50
292;DHT22;23311;48.776;9.162;2023-08-01T01:15:36;17.60;95.50
292;DHT22;23311;48.776;9.162;2023-08-01T01:18:04;17.70;95.50
292;DHT22;23311;48.776;9.162;2023-08-01T01:20:34;17.80;95.50
292;DHT22;23311;48.776;9.162;2023-08-01T01:23:04;17.90;95.50
292;DHT22;23311;48.776;9.162;2023-08-01T01:25:33;17.90;95.50
292;DHT22;23311;48.776;9.162;2023-08-01T01:28:04;17.90;95.50
292;DHT22;23311;48.776;9.162;2023-08-01T01:30:33;17.90;95.50
292;DHT22;23311;48.776;9.162;2023-08-01T01:33:02;18.10;95.50
292;DHT22;23311;48.776;9.162;2023-08-01T01:35:34;18.00;95.50
292;DHT22;23311;48.776;9.162;2023-08-01T01:38:03;18.00;95.50
292;DHT22;23311;48.776;9.162;2023-08-01T01:40:31;17.90;95.50
292;DHT22;23311;48.776;9.162;2023-08-01T01:43:00;17.90;95.50
292;DHT22;23311;48.776;9.162;2023-08-01T01:45:29;17.90;95.50
292;DHT22;23311;48.776;9.162;2023-08-01T01:47:57;17.80;95.50
292;DHT22;23311;48.776;9.162;2023-08-01T01:50:25;17.60;95.50
292;DHT22;23311;48.776;9.162;2023-08-01T01:52:55;17.50;95.50
292;DHT22;23311;48.776;9.162;2023-08-01T01:55:23;17.50;95.50
292;DHT22;23311;48.776;9.162;2023-08-01T01:57:51;17.50;95.50
292;DHT22;23311;48.776;9.162;2023-08-01T02:00:19;17.50;95.50
292;DHT22;23311;48.776;9.162;2023-08-01T02:02:47;17.50;95.50
292;DHT22;23311;48.776;9.162;2023-08-01T02:05:15;17.50;95.50
292;DHT22;23311;48.776;9.162;2023-08-01T02:07:43;17.40;95.50
292;DHT22;23311;48.776;9.162;2023-08-01T02:10:13;17.40;95.50
292;DHT22;23311;48.776;9.162;2023-08-01T02:12:41;17.30;95.50
292;DHT22;23311;48.776;9.162;2023-08-01T02:15:09;17.30;95.50
292;DHT22;23311;48.776;9.162;2023-08-01T02:17:37;17.30;95.50
292;DHT22;23311;48.776;9.162;2023-08-01T02:20:06;17.30;95.50
292;DHT22;23311;48.776;9.162;2023-08-01T02:22:35;17.30;95.50
292;DHT22;23311;48.776;9.162;2023-08-01T02:25:03;17.40;95.50
292;DHT22;23311;48.776;9.162;2023-08-01T02:27:33;17.40;95.50
292;DHT22;23311;48.776;9.162;2023-08-01T02:30:01;17.30;95.50
292;DHT22;23311;48.776;9.162;2023-08-01T02:32:29;17.40;95.50
292;DHT22;23311;48.776;9.162;2023-08-01T02:34:57;17.40;95.50
292;DHT22;23311;48.776;9.162;2023-08-01T02:37:26;17.50;95.50
292;DHT22;23311;48.776;9.162;2023-08-01T02:39:54;17.50;95.50
292;DHT22;23311;48.776;9.162;2023-08-01T02:42:22;17.60;95.50
292;DHT22;23311;48.776;9.162;2023-08-01T02:44:51;17.60;95.50
292;DHT22;23311;48.776;9.162;2023-08-01T02:47:19;17.60;95.50
292;DHT22;23311;48.776;9.162;2023-08-01T02:49:48;17.60;95.50
292;DHT22;23311;48.776;9.162;2023-08-01T02:52:16;17.80;95.50
292;DHT22;23311;48.776;9.162;2023-08-01T02:54:44;17.90;95.50
292;DHT22;23311;48.776;9.162;2023-08-01T02:57:12;18.00;95.50
292;DHT22;23311;48.776;9.162;2023-08-01T02:59:40;18.20;95.50
292;DHT22;23311;48.776;9.162;2023-08-01T03:02:09;18.20;95.50
292;DHT22;23311;48.776;9.162;2023-08-01T03:04:37;18.30;95.50
292;DHT22;23311;48.776;9.162;2023-08-01T03:07:13;18.30;95.50
292;DHT22;23311;48.776;9.162;2023-08-01T03:09:41;18.40;95.50
292;DHT22;23311;48.776;9.162;2023-08-01T03:12:10;18.40;95.50
292;DHT22;23311;48.776;9.162;2023-08-01T03:14:38;18.40;95.50
292;DHT22;23311;48.776;9.162;2023-08-01T03:17:09;18.40;95.50
292;DHT22;23311;48.776;9.162;2023-08-01T03:19:37;18.40;95.50
292;DHT22;23311;48.776;9.162;2023-08-01T03:22:06;18.40;95.50
292;DHT22;23311;48.776;9.162;2023-08-01T03:24:34;18.40;95.50
292;DHT22;23311;48.776;9.162;2023-08-01T03:27:03;18.50;95.50
292;DHT22;23311;48.776;9.162;2023-08-01T03:29:31;18.50;95.50
292;DHT22;23311;48.776;9.162;2023-08-01T03:31:59;18.50;95.50
292;DHT22;23311;48.776;9.162;2023-08-01T03:34:29;18.50;95.50
292;DHT22;23311;48.776;9.162;2023-08-01T03:36:57;18.50;95.50
292;DHT22;23311;48.776;9.162;2023-08-01T03:39:25;18.40;95.50
292;DHT22;23311;48.776;9.162;2023-08-01T03:41:53;18.60;95.50
292;DHT22;23311;48.776;9.162;2023-08-01T03:44:21;18.80;95.50
292;DHT22;23311;48.776;9.162;2023-08-01T03:46:50;18.90;95.50
292;DHT22;23311;48.776;9.162;2023-08-01T03:49:18;19.00;95.50
292;DHT22;23311;48.776;9.162;2023-08-01T03:51:47;19.00;95.50
292;DHT22;23311;48.776;9.162;2023-08-01T03:54:15;19.00;95.50
292;DHT22;23311;48.776;9.162;2023-08-01T03:56:43;19.10;95.50
292;DHT22;23311;48.776;9.162;2023-08-01T03:59:13;19.10;95.50
292;DHT22;23311;48.776;9.162;2023-08-01T04:01:42;19.10;95.50
292;DHT22;23311;48.776;9.162;2023-08-01T04:04:10;19.20;95.50
292;DHT22;23311;48.776;9.162;2023-08-01T04:06:38;19.20;95.50
292;DHT22;23311;48.776;9.162;2023-08-01T04:09:08;19.20;95.50
292;DHT22;23311;48.776;9.162;2023-08-01T04:11:37;19.20;95.50
292;DHT22;23311;48.776;9.162;2023-08-01T04:14:05;19.20;95.50
292;DHT22;23311;48.776;9.162;2023-08-01T04:16:33;19.20;95.50
292;DHT22;23311;48.776;9.162;2023-08-01T04:19:01;19.10;95.50
292;DHT22;23311;48.776;9.162;2023-08-01T04:21:29;19.10;95.50
292;DHT22;23311;48.776;9.162;2023-08-01T04:23:57;19.10;95.50
292;DHT22;23311;48.776;9.162;2023-08-01T04:26:26;19.00;95.50
292;DHT22;23311;48.776;9.162;2023-08-01T04:28:55;19.00;95.50
292;DHT22;23311;48.776;9.162;2023-08-01T04:31:23;18.90;95.50
292;DHT22;23311;48.776;9.162;2023-08-01T04:33:51;18.90;95.50
292;DHT22;23311;48.776;9.162;2023-08-01T04:36:19;18.90;95.50
292;DHT22;23311;48.776;9.162;2023-08-01T04:38:47;19.00;95.50
292;DHT22;23311;48.776;9.162;2023-08-01T04:41:15;19.00;95.50
292;DHT22;23311;48.776;9.162;2023-08-01T04:43:44;19.00;95.50
292;DHT22;23311;48.776;9.162;2023-08-01T04:46:12;19.10;95.50
292;DHT22;23311;48.776;9.162;2023-08-01T04:48:41;19.10;95.50
292;DHT22;23311;48.776;9.162;2023-08-01T04:51:09;19.10;95.50
292;DHT22;23311;48.776;9.162;2023-08-01T04:53:37;19.20;95.50
292;DHT22;23311;48.776;9.162;2023-08-01T04:56:06;19.20;95.50
292;DHT22;23311;48.776;9.162;2023-08-01T04:58:34;19.30;95.50
292;DHT22;23311;48.776;9.162;2023-08-01T05:01:03;19.40;95.50
292;DHT22;23311;48.776;9.162;2023-08-01T05:03:31;19.50;95.50
292;DHT22;23311;48.776;9.162;2023-08-01T05:06:00;19.40;95.50
292;DHT22;23311;48.776;9.162;2023-08-01T05:08:28;19.50;95.50
292;DHT22;23311;48.776;9.162;2023-08-01T05:10:56;19.50;95.50
292;DHT22;23311;48.776;9.162;2023-08-01T05:13:24;19.50;95.50
292;DHT22;23311;48.776;9.162;2023-08-01T05:15:52;19.50;95.50
292;DHT22;23311;48.776;9.162;2023-08-01T05:18:22;19.50;95.50
292;DHT22;23311;48.776;9.162;2023-08-01T05:20:50;19.50;95.50
292;DHT22;23311;48.776;9.162;2023-08-01T05:23:18;19.50;95.50
292;DHT22;23311;48.776;9.162;2023-08-01T05:25:46;19.50;95.50
292;DHT22;23311;48.776;9.162;2023-08-01T05:28:14;19.50;95.50
292;DHT22;23311;48.776;9.162;2023-08-01T05:30:43;19.50;95.50
292;DHT22;23311;48.776;9.162;2023-08-01T05:33:11;19.40;95.50
292;DHT22;23311;48.776;9.162;2023-08-01T05:35:40;19.40;95.50
292;DHT22;23311;48.776;9.162;2023-08-01T05:38:08;19.30;95.50
292;DHT22;23311;48.776;9.162;2023-08-01T05:40:36;19.40;95.50
292;DHT22;23311;48.776;9.162;2023-08-01T05:43:04;19.50;95.50
292;DHT22;23311;48.776;9.162;2023-08-01T05:45:35;19.60;95.50
292;DHT22;23311;48.776;9.162;2023-08-01T05:48:03;19.70;95.50
292;DHT22;23311;48.776;9.162;2023-08-01T05:50:32;19.70;95.50
292;DHT22;23311;48.776;9.162;2023-08-01T05:53:01;19.80;95.50
292;DHT22;23311;48.776;9.162;2023-08-01T05:55:29;19.80;95.50
292;DHT22;23311;48.776;9.162;2023-08-01T05:57:57;19.90;95.50
292;DHT22;23311;48.776;9.162;2023-08-01T06:00:25;19.90;95.50
292;DHT22;23311;48.776;9.162;2023-08-01T06:02:54;20.00;95.50
292;DHT22;23311;48.776;9.162;2023-08-01T06:05:22;20.00;95.50
292;DHT22;23311;48.776;9.162;2023-08-01T06:07:51;20.00;95.50
292;DHT22;23311;48.776;9.162;2023-08-01T06:10:20;20.10;95.50
292;DHT22;23311;48.776;9.162;2023-08-01T06:12:48;20.10;95.50
292;DHT22;23311;48.776;9.162;2023-08-01T06:15:16;20.10;95.50
292;DHT22;23311;48.776;9.162;2023-08-01T06:17:44;20.10;95.50
292;DHT22;23311;48.776;9.162;2023-08-01T06:20:13;20.10;95.50
292;DHT22;23311;48.776;9.162;2023-08-01T06:22:41;20.20;95.50
292;DHT22;23311;48.776;9.162;2023-08-01T06:25:09;20.20;95.50
292;DHT22;23311;48.776;9.162;2023-08-01T06:27:39;20.00;95.50
292;DHT22;23311;48.776;9.162;2023-08-01T06:30:08;19.70;95.50
292;DHT22;23311;48.776;9.162;2023-08-01T06:32:36;19.20;95.50
292;DHT22;23311;48.776;9.162;2023-08-01T06:35:05;18.70;95.50
292;DHT22;23311;48.776;9.162;2023-08-01T06:37:34;18.30;95.50
292;DHT22;23311;48.776;9.162;2023-08-01T06:40:02;18.40;95.50
292;DHT22;23311;48.776;9.162;2023-08-01T06:42:31;18.30;95.50
292;DHT22;23311;48.776;9.162;2023-08-01T06:45:00;18.10;95.50
292;DHT22;23311;48.776;9.162;2023-08-01T06:47:28;18.10;95.50
292;DHT22;23311;48.776;9.162;2023-08-01T06:49:57;18.00;95.50
292;DHT22;23311;48.776;9.162;2023-08-01T06:52:25;17.90;95.50
292;DHT22;23311;48.776;9.162;2023-08-01T06:54:53;17.80;95.50
292;DHT22;23311;48.776;9.162;2023-08-01T06:57:21;17.70;95.50
292;DHT22;23311;48.776;9.162;2023-08-01T06:59:49;17.50;95.50
292;DHT22;23311;48.776;9.162;2023-08-01T07:02:18;17.40;95.50
292;DHT22;23311;48.776;9.162;2023-08-01T07:04:46;17.40;95.50
292;DHT22;23311;48.776;9.162;2023-08-01T07:07:15;17.50;95.50
292;DHT22;23311;48.776;9.162;2023-08-01T07:09:43;17.50;95.50
292;DHT22;23311;48.776;9.162;2023-08-01T07:12:11;17.70;95.50
292;DHT22;23311;48.776;9.162;2023-08-01T07:14:39;17.70;95.50
292;DHT22;23311;48.776;9.162;2023-08-01T07:17:07;17.70;95.50
292;DHT22;23311;48.776;9.162;2023-08-01T07:19:36;17.80;95.50
292;DHT22;23311;48.776;9.162;2023-08-01T07:22:05;17.80;95.50
292;DHT22;23311;48.776;9.162;2023-08-01T07:24:33;18.10;95.50
292;DHT22;23311;48.776;9.162;2023-08-01T07:27:01;18.10;95.50
292;DHT22;23311;48.776;9.162;2023-08-01T07:29:29;17.90;95.50
292;DHT22;23311;48.776;9.162;2023-08-01T07:31:57;17.70;95.50
292;DHT22;23311;48.776;9.162;2023-08-01T07:34:25;17.70;95.50
292;DHT22;23311;48.776;9.162;2023-08-01T07:36:55;17.70;95.50
292;DHT22;23311;48.776;9.162;2023-08-01T07:39:23;17.50;95.50
292;DHT22;23311;48.776;9.162;2023-08-01T07:41:51;17.30;95.50
292;DHT22;23311;48.776;9.162;2023-08-01T07:44:19;17.30;95.50
292;DHT22;23311;48.776;9.162;2023-08-01T07:46:47;17.20;95.50
292;DHT22;23311;48.776;9.162;2023-08-01T07:49:15;17.10;95.50
292;DHT22;23311;48.776;9.162;2023-08-01T07:51:43;17.00;95.50
292;DHT22;23311;48.776;9.162;2023-08-01T07:54:13;16.90;95.50
292;DHT22;23311;48.776;9.162;2023-08-01T07:56:41;16.90;95.50
292;DHT22;23311;48.776;9.162;2023-08-01T07:59:10;16.90;95.50
292;DHT22;23311;48.776;9.162;2023-08-01T08:01:38;16.90;95.50
292;DHT22;23311;48.776;9.162;2023-08-01T08:04:07;16.90;95.50
292;DHT22;23311;48.776;9.162;2023-08-01T08:06:37;17.00;95.50
292;DHT22;23311;48.776;9.162;2023-08-01T08:09:05;17.10;95.50
292;DHT22;23311;48.776;9.162;2023-08-01T08:11:35;17.20;95.50
292;DHT22;23311;48.776;9.162;2023-08-01T08:14:03;17.30;95.50
292;DHT22;23311;48.776;9.162;2023-08-01T08:16:31;17.40;95.50
292;DHT22;23311;48.776;9.162;2023-08-01T08:19:00;17.30;95.50
292;DHT22;23311;48.776;9.162;2023-08-01T08:21:28;17.30;95.50
292;DHT22;23311;48.776;9.162;2023-08-01T08:23:56;17.30;95.50
292;DHT22;23311;48.776;9.162;2023-08-01T08:26:24;17.40;95.50
292;DHT22;23311;48.776;9.162;2023-08-01T08:28:54;17.40;95.50
292;DHT22;23311;48.776;9.162;2023-08-01T08:31:22;17.50;95.50
292;DHT22;23311;48.776;9.162;2023-08-01T08:33:50;17.50;95.50
292;DHT22;23311;48.776;9.162;2023-08-01T08:36:18;17.40;95.50
292;DHT22;23311;48.776;9.162;2023-08-01T08:38:46;17.50;95.50
292;DHT22;23311;48.776;9.162;2023-08-01T08:41:20;17.60;95.50
292;DHT22;23311;48.776;9.162;2023-08-01T08:43:49;17.70;95.50
292;DHT22;23311;48.776;9.162;2023-08-01T08:46:20;17.80;95.50
292;DHT22;23311;48.776;9.162;2023-08-01T08:48:49;18.10;95.50
292;DHT22;23311;48.776;9.162;2023-08-01T08:51:17;18.20;95.50
292;DHT22;23311;48.776;9.162;2023-08-01T08:53:47;18.40;95.50
292;DHT22;23311;48.776;9.162;2023-08-01T08:56:19;18.70;95.50
292;DHT22;23311;48.776;9.162;2023-08-01T08:58:49;18.90;95.50
292;DHT22;23311;48.776;9.162;2023-08-01T09:01:18;19.20;95.50
292;DHT22;23311;48.776;9.162;2023-08-01T09:03:47;19.50;95.50
292;DHT22;23311;48.776;9.162;2023-08-01T09:06:16;19.50;95.50
292;DHT22;23311;48.776;9.162;2023-08-01T09:08:50;19.20;95.50
292;DHT22;23311;48.776;9.162;2023-08-01T09:11:19;19.30;95.50
292;DHT22;23311;48.776;9.162;2023-08-01T09:13:47;19.30;95.50
292;DHT22;23311;48.776;9.162;2023-08-01T09:16:18;19.10;95.50
292;DHT22;23311;48.776;9.162;2023-08-01T09:18:48;19.00;95.50
292;DHT22;23311;48.776;9.162;2023-08-01T09:21:18;19.00;95.50
292;DHT22;23311;48.776;9.162;2023-08-01T09:23:46;19.00;95.50
292;DHT22;23311;48.776;9.162;2023-08-01T09:26:15;18.90;95.50
292;DHT22;23311;48.776;9.162;2023-08-01T09:28:43;19.00;95.50
292;DHT22;23311;48.776;9.162;2023-08-01T09:31:11;19.00;95.50
292;DHT22;23311;48.776;9.162;2023-08-01T09:33:41;19.10;95.50
292;DHT22;23311;48.776;9.162;2023-08-01T09:36:09;19.40;95.50
292;DHT22;23311;48.776;9.162;2023-08-01T09:38:38;19.80;95.50
292;DHT22;23311;48.776;9.162;2023-08-01T09:41:06;20.40;95.50
292;DHT22;23311;48.776;9.162;2023-08-01T09:43:34;20.80;95.50
292;DHT22;23311;48.776;9.162;2023-08-01T09:46:06;21.30;95.50
292;DHT22;23311;48.776;9.162;2023-08-01T09:48:34;21.50;95.50
292;DHT22;23311;48.776;9.162;2023-08-01T09:51:08;21.10;95.50
292;DHT22;23311;48.776;9.162;2023-08-01T09:53:47;20.70;95.50
292;DHT22;23311;48.776;9.162;2023-08-01T09:56:18;21.00;95.50
292;DHT22;23311;48.776;9.162;2023-08-01T09:58:47;20.80;95.50
292;DHT22;23311;48.776;9.162;2023-08-01T10:01:19;21.30;95.50
292;DHT22;23311;48.776;9.162;2023-08-01T10:03:50;21.20;95.50
292;DHT22;23311;48.776;9.162;2023-08-01T10:06:21;21.20;95.50
292;DHT22;23311;48.776;9.162;2023-08-01T10:08:52;20.90;95.50
292;DHT22;23311;48.776;9.162;2023-08-01T10:11:21;20.80;95.50
292;DHT22;23311;48.776;9.162;2023-08-01T10:13:50;20.80;95.50
292;DHT22;23311;48.776;9.162;2023-08-01T10:16:18;21.00;95.50
292;DHT22;23311;48.776;9.162;2023-08-01T10:18:46;21.30;95.50
292;DHT22;23311;48.776;9.162;2023-08-01T10:21:16;21.60;95.50
292;DHT22;23311;48.776;9.162;2023-08-01T10:23:46;22.10;95.50
292;DHT22;23311;48.776;9.162;2023-08-01T10:26:15;22.00;95.50
292;DHT22;23311;48.776;9.162;2023-08-01T10:28:50;22.00;95.50
292;DHT22;23311;48.776;9.162;2023-08-01T10:31:19;21.00;95.50
292;DHT22;23311;48.776;9.162;2023-08-01T10:33:49;21.50;95.50
292;DHT22;23311;48.776;9.162;2023-08-01T10:36:19;21.60;95.50
292;DHT22;23311;48.776;9.162;2023-08-01T10:38:50;22.10;95.50
292;DHT22;23311;48.776;9.162;2023-08-01T10:41:19;23.10;95.50
292;DHT22;23311;48.776;9.162;2023-08-01T10:43:48;23.00;95.50
292;DHT22;23311;48.776;9.162;2023-08-01T10:46:16;23.00;95.50
292;DHT22;23311;48.776;9.162;2023-08-01T10:48:51;22.40;95.50
292;DHT22;23311;48.776;9.162;2023-08-01T10:51:19;23.10;95.50
292;DHT22;23311;48.776;9.162;2023-08-01T10:53:49;24.00;95.50
292;DHT22;23311;48.776;9.162;2023-08-01T10:56:18;25.00;95.50
292;DHT22;23311;48.776;9.162;2023-08-01T10:58:47;25.20;94.80
292;DHT22;23311;48.776;9.162;2023-08-01T11:01:15;25.30;95.20
292;DHT22;23311;48.776;9.162;2023-08-01T11:03:43;25.20;93.70
292;DHT22;23311;48.776;9.162;2023-08-01T11:06:12;26.00;89.40
292;DHT22;23311;48.776;9.162;2023-08-01T11:08:40;23.60;92.50
292;DHT22;23311;48.776;9.162;2023-08-01T11:11:13;23.00;93.50
292;DHT22;23311;48.776;9.162;2023-08-01T11:13:50;23.10;94.40
292;DHT22;23311;48.776;9.162;2023-08-01T11:16:19;23.00;93.20
292;DHT22;23311;48.776;9.162;2023-08-01T11:18:47;23.20;92.90
292;DHT22;23311;48.776;9.162;2023-08-01T11:21:25;23.40;92.40
292;DHT22;23311;48.776;9.162;2023-08-01T11:23:53;24.50;88.90
292;DHT22;23311;48.776;9.162;2023-08-01T11:26:23;23.30;90.10
292;DHT22;23311;48.776;9.162;2023-08-01T11:28:51;23.50;89.10
292;DHT22;23311;48.776;9.162;2023-08-01T11:31:19;23.80;86.80
292;DHT22;23311;48.776;9.162;2023-08-01T11:33:55;23.70;87.80
292;DHT22;23311;48.776;9.162;2023-08-01T11:36:25;23.70;87.90
292;DHT22;23311;48.776;9.162;2023-08-01T11:38:56;24.20;86.80
292;DHT22;23311;48.776;9.162;2023-08-01T11:41:27;24.30;85.90
292;DHT22;23311;48.776;9.162;2023-08-01T11:43:55;24.30;84.80
292;DHT22;23311;48.776;9.162;2023-08-01T11:46:30;24.00;85.70
292;DHT22;23311;48.776;9.162;2023-08-01T11:48:59;23.50;85.70
292;DHT22;23311;48.776;9.162;2023-08-01T11:51:29;23.20;86.50
292;DHT22;23311;48.776;9.162;2023-08-01T11:54:00;22.90;86.20
292;DHT22;23311;48.776;9.162;2023-08-01T11:56:31;23.00;86.80
292;DHT22;23311;48.776;9.162;2023-08-01T11:58:59;23.60;84.90
292;DHT22;23311;48.776;9.162;2023-08-01T12:01:27;23.80;85.00
292;DHT22;23311;48.776;9.162;2023-08-01T12:03:56;24.10;83.90
292;DHT22;23311;48.776;9.162;2023-08-01T12:06:25;24.20;83.70
292;DHT22;23311;48.776;9.162;2023-08-01T12:08:53;23.90;83.20
292;DHT22;23311;48.776;9.162;2023-08-01T12:11:23;23.00;85.10
292;DHT22;23311;48.776;9.162;2023-08-01T12:14:03;23.30;85.00
292;DHT22;23311;48.776;9.162;2023-08-01T12:16:31;22.80;85.80
292;DHT22;23311;48.776;9.162;2023-08-01T12:19:00;22.80;85.20
292;DHT22;23311;48.776;9.162;2023-08-01T12:21:28;23.20;85.10
292;DHT22;23311;48.776;9.162;2023-08-01T12:23:56;23.70;84.60
292;DHT22;23311;48.776;9.162;2023-08-01T12:26:24;23.60;84.80
292;DHT22;23311;48.776;9.162;2023-08-01T12:28:52;24.50;83.30
292;DHT22;23311;48.776;9.162;2023-08-01T12:31:23;24.70;81.70
292;DHT22;23311;48.776;9.162;2023-08-01T12:33:51;24.60;81.70
292;DHT22;23311;48.776;9.162;2023-08-01T12:36:20;24.60;82.40
292;DHT22;23311;48.776;9.162;2023-08-01T12:38:49;24.80;81.50
292;DHT22;23311;48.776;9.162;2023-08-01T12:41:17;25.40;80.40
292;DHT22;23311;48.776;9.162;2023-08-01T12:43:46;24.80;81.00
292;DHT22;23311;48.776;9.162;2023-08-01T12:46:14;25.30;81.10
292;DHT22;23311;48.776;9.162;2023-08-01T12:48:43;24.30;82.40
292;DHT22;23311;48.776;9.162;2023-08-01T12:51:11;25.20;81.10
292;DHT22;23311;48.776;9.162;2023-08-01T12:53:41;25.00;80.60
292;DHT22;23311;48.776;9.162;2023-08-01T12:56:10;24.90;80.50
292;DHT22;23311;48.776;9.162;2023-08-01T12:58:38;25.00;79.90
292;DHT22;23311;48.776;9.162;2023-08-01T13:01:06;25.30;77.50
292;DHT22;23311;48.776;9.162;2023-08-01T13:03:34;24.80;78.10
292;DHT22;23311;48.776;9.162;2023-08-01T13:06:04;24.90;78.00
292;DHT22;23311;48.776;9.162;2023-08-01T13:08:32;25.50;76.30
292;DHT22;23311;48.776;9.162;2023-08-01T13:11:00;24.80;77.80
292;DHT22;23311;48.776;9.162;2023-08-01T13:13:29;25.20;77.30
292;DHT22;23311;48.776;9.162;2023-08-01T13:15:57;25.20;78.10
292;DHT22;23311;48.776;9.162;2023-08-01T13:18:26;25.90;76.30
292;DHT22;23311;48.776;9.162;2023-08-01T13:20:54;25.70;75.90
292;DHT22;23311;48.776;9.162;2023-08-01T13:23:25;25.00;77.50
292;DHT22;23311;48.776;9.162;2023-08-01T13:25:53;24.60;77.50
292;DHT22;23311;48.776;9.162;2023-08-01T13:28:21;24.40;78.00
292;DHT22;23311;48.776;9.162;2023-08-01T13:30:49;24.90;77.50
292;DHT22;23311;48.776;9.162;2023-08-01T13:33:17;25.30;76.40
292;DHT22;23311;48.776;9.162;2023-08-01T13:35:45;25.00;77.40
292;DHT22;23311;48.776;9.162;2023-08-01T13:38:14;25.40;77.20
292;DHT22;23311;48.776;9.162;2023-08-01T13:40:45;24.70;77.80
292;DHT22;23311;48.776;9.162;2023-08-01T13:43:13;24.20;79.70
292;DHT22;23311;48.776;9.162;2023-08-01T13:45:42;24.80;78.60
292;DHT22;23311;48.776;9.162;2023-08-01T13:48:10;25.20;77.80
292;DHT22;23311;48.776;9.162;2023-08-01T13:50:38;25.10;78.70
292;DHT22;23311;48.776;9.162;2023-08-01T13:53:06;24.70;78.30
292;DHT22;23311;48.776;9.162;2023-08-01T13:55:37;24.60;78.30
292;DHT22;23311;48.776;9.162;2023-08-01T13:58:06;25.10;78.90
292;DHT22;23311;48.776;9.162;2023-08-01T14:00:35;26.30;76.80
292;DHT22;23311;48.776;9.162;2023-08-01T14:03:03;25.80;76.30
292;DHT22;23311;48.776;9.162;2023-08-01T14:05:31;25.40;77.20
292;DHT22;23311;48.776;9.162;2023-08-01T14:07:59;24.70;77.00
292;DHT22;23311;48.776;9.162;2023-08-01T14:10:29;24.90;77.20
292;DHT22;23311;48.776;9.162;2023-08-01T14:12:57;25.20;76.70
292;DHT22;23311;48.776;9.162;2023-08-01T14:15:26;26.10;75.40
292;DHT22;23311;48.776;9.162;2023-08-01T14:17:54;25.40;76.10
292;DHT22;23311;48.776;9.162;2023-08-01T14:20:23;25.70;75.10
292;DHT22;23311;48.776;9.162;2023-08-01T14:22:51;25.50;75.50
292;DHT22;23311;48.776;9.162;2023-08-01T14:25:19;26.00;73.60
292;DHT22;23311;48.776;9.162;2023-08-01T14:27:47;26.40;73.40
292;DHT22;23311;48.776;9.162;2023-08-01T14:30:15;26.50;73.30
292;DHT22;23311;48.776;9.162;2023-08-01T14:32:45;25.60;74.50
292;DHT22;23311;48.776;9.162;2023-08-01T14:35:13;25.30;75.30
292;DHT22;23311;48.776;9.162;2023-08-01T14:37:41;25.80;74.30
292;DHT22;23311;48.776;9.162;2023-08-01T14:40:15;25.80;73.80
292;DHT22;23311;48.776;9.162;2023-08-01T14:42:43;25.50;73.70
292;DHT22;23311;48.776;9.162;2023-08-01T14:45:11;25.10;73.10
292;DHT22;23311;48.776;9.162;2023-08-01T14:47:39;25.20;72.80
292;DHT22;23311;48.776;9.162;2023-08-01T14:50:10;25.20;72.50
292;DHT22;23311;48.776;9.162;2023-08-01T14:52:39;25.70;71.70
292;DHT22;23311;48.776;9.162;2023-08-01T14:55:08;25.70;71.90
292;DHT22;23311;48.776;9.162;2023-08-01T14:57:36;25.60;72.80
292;DHT22;23311;48.776;9.162;2023-08-01T15:00:05;25.50;72.20
292;DHT22;23311;48.776;9.162;2023-08-01T15:02:33;25.10;72.80
292;DHT22;23311;48.776;9.162;2023-08-01T15:05:02;25.20;73.80
292;DHT22;23311;48.776;9.162;2023-08-01T15:07:31;25.40;73.10
292;DHT22;23311;48.776;9.162;2023-08-01T15:10:01;25.40;73.20
292;DHT22;23311;48.776;9.162;2023-08-01T15:12:29;25.50;73.60
292;DHT22;23311;48.776;9.162;2023-08-01T15:14:57;26.00;72.40
292;DHT22;23311;48.776;9.162;2023-08-01T15:17:25;25.50;73.60
292;DHT22;23311;48.776;9.162;2023-08-01T15:19:53;25.90;73.40
292;DHT22;23311;48.776;9.162;2023-08-01T15:22:21;25.90;73.30
292;DHT22;23311;48.776;9.162;2023-08-01T15:24:51;25.40;73.60
292;DHT22;23311;48.776;9.162;2023-08-01T15:27:19;25.20;73.60
292;DHT22;23311;48.776;9.162;2023-08-01T15:29:47;24.40;75.30
292;DHT22;23311;48.776;9.162;2023-08-01T15:32:15;23.80;77.00
292;DHT22;23311;48.776;9.162;2023-08-01T15:34:43;24.10;76.90
292;DHT22;23311;48.776;9.162;2023-08-01T15:37:11;24.10;77.00
292;DHT22;23311;48.776;9.162;2023-08-01T15:39:39;24.20;77.10
292;DHT22;23311;48.776;9.162;2023-08-01T15:42:09;24.10;77.60
292;DHT22;23311;48.776;9.162;2023-08-01T15:44:37;24.30;77.60
292;DHT22;23311;48.776;9.162;2023-08-01T15:47:05;25.00;76.80
292;DHT22;23311;48.776;9.162;2023-08-01T15:49:34;25.60;75.10
292;DHT22;23311;48.776;9.162;2023-08-01T15:52:02;25.40;75.50
292;DHT22;23311;48.776;9.162;2023-08-01T15:54:30;25.60;75.30
292;DHT22;23311;48.776;9.162;2023-08-01T15:56:59;25.70;74.00
292;DHT22;23311;48.776;9.162;2023-08-01T15:59:29;25.30;74.10
292;DHT22;23311;48.776;9.162;2023-08-01T16:01:57;25.30;74.60
292;DHT22;23311;48.776;9.162;2023-08-01T16:04:25;25.20;75.20
292;DHT22;23311;48.776;9.162;2023-08-01T16:06:53;25.30;75.00
292;DHT22;23311;48.776;9.162;2023-08-01T16:09:21;24.60;76.20
292;DHT22;23311;48.776;9.162;2023-08-01T16:11:49;25.10;75.30